sensor_id;sensor_type;location;lat;lon;timestamp;noise_LAeq;noise_LA_min;noise_LA_max;noise_LA01;noise_LA95
78273;Laerm;67530;52.282;5.972;2023-03-23T00:00:13;45.5;41;47.9;;
78273;Laerm;67530;52.282;5.972;2023-03-23T00:00:33;46.3;41.8;48;;
78273;Laerm;67530;52.282;5.972;2023-03-23T00:00:53;45.6;40.6;47.7;;
78273;Laerm;67530;52.282;5.972;2023-03-23T00:01:14;46.2;42.5;48.1;;
78273;Laerm;67530;52.282;5.972;2023-03-23T00:01:33;45.7;41.1;47.8;;
78273;Laerm;67530;52.282;5.972;2023-03-23T00:01:53;45.5;42.6;47.7;;
78273;Laerm;67530;52.282;5.972;2023-03-23T00:02:13;45.9;40.8;47.6;;
78273;Laerm;67530;52.282;5.972;2023-03-23T00:02:33;45.5;41.5;47.8;;
78273;Laerm;67530;52.282;5.972;2023-03-23T00:02:53;46;43;47.9;;
78273;Laerm;67530;52.282;5.972;2023-03-23T00:03:13;45.8;41.9;47.5;;
78273;Laerm;67530;52.282;5.972;2023-03-23T00:03:33;45.9;42.1;47.7;;
78273;Laerm;67530;52.282;5.972;2023-03-23T00:03:54;45.5;41.4;47.4;;
78273;Laerm;67530;52.282;5.972;2023-03-23T00:04:14;45.1;41.4;47.2;;
78273;Laerm;67530;52.282;5.972;2023-03-23T00:04:34;44.2;39.8;47.2;;
78273;Laerm;67530;52.282;5.972;2023-03-23T00:04:54;44.4;38.3;46.7;;
78273;Laerm;67530;52.282;5.972;2023-03-23T00:05:14;45.1;40.1;47;;
78273;Laerm;67530;52.282;5.972;2023-03-23T00:05:34;45.3;41.8;47.5;;
78273;Laerm;67530;52.282;5.972;2023-03-23T00:05:54;45.1;41;46.9;;
78273;Laerm;67530;52.282;5.972;2023-03-23T00:06:14;45.3;41.7;47.1;;
78273;Laerm;67530;52.282;5.972;2023-03-23T00:06:34;44.2;40.2;49.2;;
78273;Laerm;67530;52.282;5.972;2023-03-23T00:06:54;44.7;40.4;47.3;;
78273;Laerm;67530;52.282;5.972;2023-03-23T00:07:14;44.9;40.4;47.4;;
78273;Laerm;67530;52.282;5.972;2023-03-23T00:07:34;44.7;40.3;47.1;;
78273;Laerm;67530;52.282;5.972;2023-03-23T00:07:54;44.4;40;46.9;;
78273;Laerm;67530;52.282;5.972;2023-03-23T00:08:14;44.8;40.1;47.1;;
78273;Laerm;67530;52.282;5.972;2023-03-23T00:08:35;44.6;40.3;47.6;;
78273;Laerm;67530;52.282;5.972;2023-03-23T00:08:55;45.2;40.5;47.1;;
78273;Laerm;67530;52.282;5.972;2023-03-23T00:09:14;45.2;40.9;47.3;;
78273;Laerm;67530;52.282;5.972;2023-03-23T00:09:35;44.8;40.3;47.2;;
78273;Laerm;67530;52.282;5.972;2023-03-23T00:09:55;43.3;38.8;47.1;;
78273;Laerm;67530;52.282;5.972;2023-03-23T00:10:15;44.8;38.8;47.2;;
78273;Laerm;67530;52.282;5.972;2023-03-23T00:10:35;45.1;40.8;47;;
78273;Laerm;67530;52.282;5.972;2023-03-23T00:10:55;45.2;40.9;47.2;;
78273;Laerm;67530;52.282;5.972;2023-03-23T00:11:16;44;38.7;47.6;;
78273;Laerm;67530;52.282;5.972;2023-03-23T00:11:35;45.4;40.7;47;;
78273;Laerm;67530;52.282;5.972;2023-03-23T00:11:55;45.7;41.4;47.5;;
78273;Laerm;67530;52.282;5.972;2023-03-23T00:12:15;43.6;39.2;47.4;;
78273;Laerm;67530;52.282;5.972;2023-03-23T00:12:35;44;40.4;46.9;;
78273;Laerm;67530;52.282;5.972;2023-03-23T00:12:55;44.2;39.2;47;;
78273;Laerm;67530;52.282;5.972;2023-03-23T00:13:15;45.2;40.2;47;;
78273;Laerm;67530;52.282;5.972;2023-03-23T00:13:56;44.9;39.6;47.2;;
78273;Laerm;67530;52.282;5.972;2023-03-23T00:14:16;45.9;43;47.1;;
78273;Laerm;67530;52.282;5.972;2023-03-23T00:14:35;44.7;39.2;47.2;;
78273;Laerm;67530;52.282;5.972;2023-03-23T00:14:55;45.5;39.9;47.1;;
78273;Laerm;67530;52.282;5.972;2023-03-23T00:15:16;45;40;49.7;;
78273;Laerm;67530;52.282;5.972;2023-03-23T00:15:36;44.9;40.1;47.1;;
78273;Laerm;67530;52.282;5.972;2023-03-23T00:15:56;45;41.5;46.8;;
78273;Laerm;67530;52.282;5.972;2023-03-23T00:16:16;45.1;39.8;47;;
78273;Laerm;67530;52.282;5.972;2023-03-23T00:16:36;44.9;40;47.1;;
78273;Laerm;67530;52.282;5.972;2023-03-23T00:16:56;45.3;42.3;47;;
78273;Laerm;67530;52.282;5.972;2023-03-23T00:17:16;43.5;39.5;50.4;;
78273;Laerm;67530;52.282;5.972;2023-03-23T00:17:36;44.3;39.8;51.2;;
78273;Laerm;67530;52.282;5.972;2023-03-23T00:17:56;44;40.4;46.6;;
78273;Laerm;67530;52.282;5.972;2023-03-23T00:18:16;45;39.5;47.9;;
78273;Laerm;67530;52.282;5.972;2023-03-23T00:18:36;44.8;40.3;47.4;;
78273;Laerm;67530;52.282;5.972;2023-03-23T00:18:57;43.9;40.4;47;;
78273;Laerm;67530;52.282;5.972;2023-03-23T00:19:16;44.2;40.3;47.2;;
78273;Laerm;67530;52.282;5.972;2023-03-23T00:19:37;43.9;40.4;46.7;;
78273;Laerm;67530;52.282;5.972;2023-03-23T00:19:56;45.4;40.4;47.5;;
78273;Laerm;67530;52.282;5.972;2023-03-23T00:20:17;44.9;39.4;47.5;;
78273;Laerm;67530;52.282;5.972;2023-03-23T00:20:36;44.7;40.6;47.5;;
78273;Laerm;67530;52.282;5.972;2023-03-23T00:20:57;45;39.8;47.7;;
78273;Laerm;67530;52.282;5.972;2023-03-23T00:21:17;44;39.8;47.4;;
78273;Laerm;67530;52.282;5.972;2023-03-23T00:21:37;44.7;40.7;47.3;;
78273;Laerm;67530;52.282;5.972;2023-03-23T00:21:57;45.1;41.2;47.5;;
78273;Laerm;67530;52.282;5.972;2023-03-23T00:22:17;45.5;41.8;47.5;;
78273;Laerm;67530;52.282;5.972;2023-03-23T00:22:37;46.2;42.3;47.6;;
78273;Laerm;67530;52.282;5.972;2023-03-23T00:22:57;46.1;41.3;47.6;;
78273;Laerm;67530;52.282;5.972;2023-03-23T00:23:17;45.6;41.5;47.4;;
78273;Laerm;67530;52.282;5.972;2023-03-23T00:23:37;43.9;39.8;47.3;;
78273;Laerm;67530;52.282;5.972;2023-03-23T00:23:57;45.8;41;47.7;;
78273;Laerm;67530;52.282;5.972;2023-03-23T00:24:17;45.9;42;47.5;;
78273;Laerm;67530;52.282;5.972;2023-03-23T00:24:37;46.1;43;47.6;;
78273;Laerm;67530;52.282;5.972;2023-03-23T00:24:57;45.8;39.5;47.6;;
78273;Laerm;67530;52.282;5.972;2023-03-23T00:25:17;45.3;40.7;47.4;;
78273;Laerm;67530;52.282;5.972;2023-03-23T00:25:37;45.5;41.5;47.7;;
78273;Laerm;67530;52.282;5.972;2023-03-23T00:25:57;46;41.9;47.8;;
78273;Laerm;67530;52.282;5.972;2023-03-23T00:26:17;46.3;42.6;47.6;;
78273;Laerm;67530;52.282;5.972;2023-03-23T00:26:38;44.7;40.1;47.3;;
78273;Laerm;67530;52.282;5.972;2023-03-23T00:26:58;45.4;40.2;47.4;;
78273;Laerm;67530;52.282;5.972;2023-03-23T00:27:18;45.3;41.9;47.5;;
78273;Laerm;67530;52.282;5.972;2023-03-23T00:27:38;46.7;39.6;50.9;;
78273;Laerm;67530;52.282;5.972;2023-03-23T00:27:58;43.6;39;46.8;;
78273;Laerm;67530;52.282;5.972;2023-03-23T00:28:18;44.6;41.1;50.7;;
78273;Laerm;67530;52.282;5.972;2023-03-23T00:28:38;44.5;38.6;47.3;;
78273;Laerm;67530;52.282;5.972;2023-03-23T00:28:58;44.8;40.7;47.4;;
78273;Laerm;67530;52.282;5.972;2023-03-23T00:29:19;45;39.9;47.4;;
78273;Laerm;67530;52.282;5.972;2023-03-23T00:29:38;46.2;42;48.1;;
78273;Laerm;67530;52.282;5.972;2023-03-23T00:29:58;45.7;40.9;48.1;;
78273;Laerm;67530;52.282;5.972;2023-03-23T00:30:18;45;40.4;47.5;;
78273;Laerm;67530;52.282;5.972;2023-03-23T00:30:38;44.5;40.2;47.6;;
78273;Laerm;67530;52.282;5.972;2023-03-23T00:30:59;44.6;40.6;47.7;;
78273;Laerm;67530;52.282;5.972;2023-03-23T00:31:18;46.3;42.9;47.9;;
78273;Laerm;67530;52.282;5.972;2023-03-23T00:31:38;45.3;40.1;48.1;;
78273;Laerm;67530;52.282;5.972;2023-03-23T00:31:59;45.9;41.9;47.6;;
78273;Laerm;67530;52.282;5.972;2023-03-23T00:32:19;46.3;40.4;48.1;;
78273;Laerm;67530;52.282;5.972;2023-03-23T00:32:39;45.8;41.1;48;;
78273;Laerm;67530;52.282;5.972;2023-03-23T00:32:59;45.8;41.6;47.5;;
78273;Laerm;67530;52.282;5.972;2023-03-23T00:33:19;45.3;39.7;47.6;;
78273;Laerm;67530;52.282;5.972;2023-03-23T00:33:39;45.7;41.5;47.3;;
78273;Laerm;67530;52.282;5.972;2023-03-23T00:33:59;46.4;43;50;;
78273;Laerm;67530;52.282;5.972;2023-03-23T00:34:20;45.1;40.5;47.5;;
78273;Laerm;67530;52.282;5.972;2023-03-23T00:34:39;45.6;41.7;47.7;;
78273;Laerm;67530;52.282;5.972;2023-03-23T00:34:59;44.2;40.4;47;;
78273;Laerm;67530;52.282;5.972;2023-03-23T00:35:19;45.7;42.1;47.4;;
78273;Laerm;67530;52.282;5.972;2023-03-23T00:35:40;45.9;43;47.6;;
78273;Laerm;67530;52.282;5.972;2023-03-23T00:35:59;46.5;43.3;49;;
78273;Laerm;67530;52.282;5.972;2023-03-23T00:36:19;45.3;38.2;47.7;;
78273;Laerm;67530;52.282;5.972;2023-03-23T00:36:39;45.7;41.8;47.4;;
78273;Laerm;67530;52.282;5.972;2023-03-23T00:37:00;44.7;40.7;47.4;;
78273;Laerm;67530;52.282;5.972;2023-03-23T00:37:20;45.8;41.4;47.5;;
78273;Laerm;67530;52.282;5.972;2023-03-23T00:37:40;45.8;41.1;47.5;;
78273;Laerm;67530;52.282;5.972;2023-03-23T00:38:00;45.2;40.1;47.3;;
78273;Laerm;67530;52.282;5.972;2023-03-23T00:38:20;44.8;39.9;47.3;;
78273;Laerm;67530;52.282;5.972;2023-03-23T00:38:40;45.4;41.2;47.4;;
78273;Laerm;67530;52.282;5.972;2023-03-23T00:39:00;45.7;40.4;47.4;;
78273;Laerm;67530;52.282;5.972;2023-03-23T00:39:20;45.5;40.8;47.2;;
78273;Laerm;67530;52.282;5.972;2023-03-23T00:39:40;45.1;41;47.4;;
78273;Laerm;67530;52.282;5.972;2023-03-23T00:40:00;44.3;39.3;46.9;;
78273;Laerm;67530;52.282;5.972;2023-03-23T00:40:20;45.6;41.6;47.2;;
78273;Laerm;67530;52.282;5.972;2023-03-23T00:40:40;45.5;41.3;47;;
78273;Laerm;67530;52.282;5.972;2023-03-23T00:41:00;45.6;42;47.7;;
78273;Laerm;67530;52.282;5.972;2023-03-23T00:41:20;43.4;39.5;46.4;;
78273;Laerm;67530;52.282;5.972;2023-03-23T00:41:40;45;40.2;47;;
78273;Laerm;67530;52.282;5.972;2023-03-23T00:42:00;45.3;40.6;47.3;;
78273;Laerm;67530;52.282;5.972;2023-03-23T00:42:20;45.6;42.2;47.2;;
78273;Laerm;67530;52.282;5.972;2023-03-23T00:42:40;45.7;41.9;47.5;;
78273;Laerm;67530;52.282;5.972;2023-03-23T00:43:01;45.5;41.9;47.3;;
78273;Laerm;67530;52.282;5.972;2023-03-23T00:43:21;45.5;40.6;47.2;;
78273;Laerm;67530;52.282;5.972;2023-03-23T00:43:41;43.4;39.3;49.3;;
78273;Laerm;67530;52.282;5.972;2023-03-23T00:44:01;45.7;42.4;47.1;;
78273;Laerm;67530;52.282;5.972;2023-03-23T00:44:21;45.4;41.1;47.3;;
78273;Laerm;67530;52.282;5.972;2023-03-23T00:44:41;45.3;41.6;47.5;;
78273;Laerm;67530;52.282;5.972;2023-03-23T00:45:01;45.5;41.7;47.1;;
78273;Laerm;67530;52.282;5.972;2023-03-23T00:45:21;45.4;41.5;46.9;;
78273;Laerm;67530;52.282;5.972;2023-03-23T00:45:41;45.1;41.4;47.1;;
78273;Laerm;67530;52.282;5.972;2023-03-23T00:46:02;45.2;39.4;47.5;;
78273;Laerm;67530;52.282;5.972;2023-03-23T00:46:21;45.7;42.2;47.9;;
78273;Laerm;67530;52.282;5.972;2023-03-23T00:46:41;45.7;41.3;47.4;;
78273;Laerm;67530;52.282;5.972;2023-03-23T00:47:02;45.1;41.4;46.9;;
78273;Laerm;67530;52.282;5.972;2023-03-23T00:47:21;45.3;42;47;;
78273;Laerm;67530;52.282;5.972;2023-03-23T00:47:41;44.8;41.7;46.7;;
78273;Laerm;67530;52.282;5.972;2023-03-23T00:48:01;43.3;39.1;46.1;;
78273;Laerm;67530;52.282;5.972;2023-03-23T00:48:22;43;39.4;45.8;;
78273;Laerm;67530;52.282;5.972;2023-03-23T00:48:42;44.2;40.2;46.3;;
78273;Laerm;67530;52.282;5.972;2023-03-23T00:49:02;43.3;39.1;46.4;;
78273;Laerm;67530;52.282;5.972;2023-03-23T00:49:23;44.1;39.9;46.6;;
78273;Laerm;67530;52.282;5.972;2023-03-23T00:49:42;44;39.2;46.9;;
78273;Laerm;67530;52.282;5.972;2023-03-23T00:50:02;43.5;38.5;47;;
78273;Laerm;67530;52.282;5.972;2023-03-23T00:50:22;43.5;38.5;46.4;;
78273;Laerm;67530;52.282;5.972;2023-03-23T00:50:42;44.9;41.1;46.9;;
78273;Laerm;67530;52.282;5.972;2023-03-23T00:51:02;43.5;38.3;46.8;;
78273;Laerm;67530;52.282;5.972;2023-03-23T00:51:22;43.9;38.6;46.6;;
78273;Laerm;67530;52.282;5.972;2023-03-23T00:51:42;44.7;40.6;46.8;;
78273;Laerm;67530;52.282;5.972;2023-03-23T00:52:03;44.8;40.5;46.5;;
78273;Laerm;67530;52.282;5.972;2023-03-23T00:52:22;43.9;39.4;46.4;;
78273;Laerm;67530;52.282;5.972;2023-03-23T00:52:42;44.6;40;47.1;;
78273;Laerm;67530;52.282;5.972;2023-03-23T00:53:02;44.7;40;46.7;;
78273;Laerm;67530;52.282;5.972;2023-03-23T00:53:22;45.1;42;46.6;;
78273;Laerm;67530;52.282;5.972;2023-03-23T00:53:42;43.5;39.2;46.1;;
78273;Laerm;67530;52.282;5.972;2023-03-23T00:54:03;44.2;39.7;46.4;;
78273;Laerm;67530;52.282;5.972;2023-03-23T00:54:23;43.8;38.7;48.3;;
78273;Laerm;67530;52.282;5.972;2023-03-23T00:54:43;44.3;38.8;46.3;;
78273;Laerm;67530;52.282;5.972;2023-03-23T00:55:03;43.3;39.8;45.7;;
78273;Laerm;67530;52.282;5.972;2023-03-23T00:55:23;42.9;38.8;46.1;;
78273;Laerm;67530;52.282;5.972;2023-03-23T00:55:43;43.8;38.1;48.9;;
78273;Laerm;67530;52.282;5.972;2023-03-23T00:56:03;43.1;38.8;46.1;;
78273;Laerm;67530;52.282;5.972;2023-03-23T00:56:23;44.7;40.4;46.4;;
78273;Laerm;67530;52.282;5.972;2023-03-23T00:56:43;43.7;37.9;46.2;;
78273;Laerm;67530;52.282;5.972;2023-03-23T00:57:04;43.7;39.3;46.3;;
78273;Laerm;67530;52.282;5.972;2023-03-23T00:57:23;43.7;37.5;46.2;;
78273;Laerm;67530;52.282;5.972;2023-03-23T00:57:43;48.8;38.5;60.8;;
78273;Laerm;67530;52.282;5.972;2023-03-23T00:58:03;44.3;40.4;49;;
78273;Laerm;67530;52.282;5.972;2023-03-23T00:58:23;43.5;38.5;46;;
78273;Laerm;67530;52.282;5.972;2023-03-23T00:58:43;44.3;40.4;46.1;;
78273;Laerm;67530;52.282;5.972;2023-03-23T00:59:03;43.3;36.6;48.6;;
78273;Laerm;67530;52.282;5.972;2023-03-23T00:59:23;43.1;38.8;46;;
78273;Laerm;67530;52.282;5.972;2023-03-23T00:59:44;43.1;38.4;46.1;;
78273;Laerm;67530;52.282;5.972;2023-03-23T01:00:04;42.4;37;45.5;;
78273;Laerm;67530;52.282;5.972;2023-03-23T01:00:24;44.1;39.2;46.2;;
78273;Laerm;67530;52.282;5.972;2023-03-23T01:00:44;43.3;38.6;46.2;;
78273;Laerm;67530;52.282;5.972;2023-03-23T01:01:04;42.4;37.2;45.7;;
78273;Laerm;67530;52.282;5.972;2023-03-23T01:01:24;44.1;38.8;50.4;;
78273;Laerm;67530;52.282;5.972;2023-03-23T01:01:44;43.2;38.9;45.9;;
78273;Laerm;67530;52.282;5.972;2023-03-23T01:02:04;42.6;38.2;47.9;;
78273;Laerm;67530;52.282;5.972;2023-03-23T01:02:24;43.8;39.5;45.9;;
78273;Laerm;67530;52.282;5.972;2023-03-23T01:02:44;42.7;38.4;49.1;;
78273;Laerm;67530;52.282;5.972;2023-03-23T01:03:04;43.4;38.3;45.9;;
78273;Laerm;67530;52.282;5.972;2023-03-23T01:03:24;43;38;45.6;;
78273;Laerm;67530;52.282;5.972;2023-03-23T01:03:44;42.8;37.6;45.6;;
78273;Laerm;67530;52.282;5.972;2023-03-23T01:04:04;42.6;38.5;45.4;;
78273;Laerm;67530;52.282;5.972;2023-03-23T01:04:24;42.9;37.6;45.3;;
78273;Laerm;67530;52.282;5.972;2023-03-23T01:04:44;43.3;39.3;45.3;;
78273;Laerm;67530;52.282;5.972;2023-03-23T01:05:05;42.8;39.6;45.3;;
78273;Laerm;67530;52.282;5.972;2023-03-23T01:05:25;42.9;38.5;44.9;;
78273;Laerm;67530;52.282;5.972;2023-03-23T01:05:45;42.7;39;45.3;;
78273;Laerm;67530;52.282;5.972;2023-03-23T01:06:05;43.3;39.6;45;;
78273;Laerm;67530;52.282;5.972;2023-03-23T01:06:25;42.3;37.6;45.7;;
78273;Laerm;67530;52.282;5.972;2023-03-23T01:06:47;41.9;38.3;44.6;;
78273;Laerm;67530;52.282;5.972;2023-03-23T01:07:05;42.9;39.1;44.8;;
78273;Laerm;67530;52.282;5.972;2023-03-23T01:07:25;42.9;38.5;45.1;;
78273;Laerm;67530;52.282;5.972;2023-03-23T01:07:45;41.8;37.2;44.7;;
78273;Laerm;67530;52.282;5.972;2023-03-23T01:08:05;41.7;37.9;45;;
78273;Laerm;67530;52.282;5.972;2023-03-23T01:08:25;43.4;38.5;51.3;;
78273;Laerm;67530;52.282;5.972;2023-03-23T01:08:45;42.4;38.6;44.6;;
78273;Laerm;67530;52.282;5.972;2023-03-23T01:09:05;42.8;39;44.8;;
78273;Laerm;67530;52.282;5.972;2023-03-23T01:09:25;41.5;37.4;45.8;;
78273;Laerm;67530;52.282;5.972;2023-03-23T01:09:45;41.9;37.8;44.9;;
78273;Laerm;67530;52.282;5.972;2023-03-23T01:10:06;42.1;37.7;44.9;;
78273;Laerm;67530;52.282;5.972;2023-03-23T01:10:25;42.2;36.9;46.5;;
78273;Laerm;67530;52.282;5.972;2023-03-23T01:10:46;43.4;39.4;45;;
78273;Laerm;67530;52.282;5.972;2023-03-23T01:11:06;42.4;37.8;46.2;;
78273;Laerm;67530;52.282;5.972;2023-03-23T01:11:26;41.5;37.6;46.7;;
78273;Laerm;67530;52.282;5.972;2023-03-23T01:11:46;41.4;38.1;44.1;;
78273;Laerm;67530;52.282;5.972;2023-03-23T01:12:06;41.8;38.2;44.5;;
78273;Laerm;67530;52.282;5.972;2023-03-23T01:12:26;42.1;37.7;44.6;;
78273;Laerm;67530;52.282;5.972;2023-03-23T01:12:46;42.5;38.9;44.4;;
78273;Laerm;67530;52.282;5.972;2023-03-23T01:13:06;42.3;38.1;44.4;;
78273;Laerm;67530;52.282;5.972;2023-03-23T01:13:26;41.6;38.1;47.8;;
78273;Laerm;67530;52.282;5.972;2023-03-23T01:13:46;42.2;37.2;44.6;;
78273;Laerm;67530;52.282;5.972;2023-03-23T01:14:06;42.4;38.7;44.5;;
78273;Laerm;67530;52.282;5.972;2023-03-23T01:14:26;41.7;36.8;45.5;;
78273;Laerm;67530;52.282;5.972;2023-03-23T01:14:46;41.9;37.7;44.1;;
78273;Laerm;67530;52.282;5.972;2023-03-23T01:15:06;41.2;36.9;44.4;;
78273;Laerm;67530;52.282;5.972;2023-03-23T01:15:27;40.6;36.3;43.8;;
78273;Laerm;67530;52.282;5.972;2023-03-23T01:15:46;41.1;37.9;43.9;;
78273;Laerm;67530;52.282;5.972;2023-03-23T01:16:07;42;39;43.9;;
78273;Laerm;67530;52.282;5.972;2023-03-23T01:16:27;41.6;37.6;44;;
78273;Laerm;67530;52.282;5.972;2023-03-23T01:16:47;40.3;36.4;44;;
78273;Laerm;67530;52.282;5.972;2023-03-23T01:17:07;43.5;35.5;51.1;;
78273;Laerm;67530;52.282;5.972;2023-03-23T01:17:27;40;35.4;45.9;;
78273;Laerm;67530;52.282;5.972;2023-03-23T01:17:47;41.7;36.8;43.9;;
78273;Laerm;67530;52.282;5.972;2023-03-23T01:18:07;39.7;35.9;43.6;;
78273;Laerm;67530;52.282;5.972;2023-03-23T01:18:27;40.8;37.3;43.6;;
78273;Laerm;67530;52.282;5.972;2023-03-23T01:18:47;41.9;37.4;43.6;;
78273;Laerm;67530;52.282;5.972;2023-03-23T01:19:07;40.9;35.9;43.5;;
78273;Laerm;67530;52.282;5.972;2023-03-23T01:19:27;40.5;36.7;43.4;;
78273;Laerm;67530;52.282;5.972;2023-03-23T01:19:47;40.3;35;43.4;;
78273;Laerm;67530;52.282;5.972;2023-03-23T01:20:07;41.5;37.3;43.7;;
78273;Laerm;67530;52.282;5.972;2023-03-23T01:20:27;40.5;36.5;43.3;;
78273;Laerm;67530;52.282;5.972;2023-03-23T01:21:08;41.6;38;43.9;;
78273;Laerm;67530;52.282;5.972;2023-03-23T01:21:28;42.7;38.3;49.2;;
78273;Laerm;67530;52.282;5.972;2023-03-23T01:21:47;40.8;36.9;43.7;;
78273;Laerm;67530;52.282;5.972;2023-03-23T01:22:08;41;35.7;43.4;;
78273;Laerm;67530;52.282;5.972;2023-03-23T01:22:28;41.3;36.8;43.5;;
78273;Laerm;67530;52.282;5.972;2023-03-23T01:22:48;41.5;36.8;43.6;;
78273;Laerm;67530;52.282;5.972;2023-03-23T01:23:08;41.3;36.8;43.5;;
78273;Laerm;67530;52.282;5.972;2023-03-23T01:23:28;41.2;36;43.5;;
78273;Laerm;67530;52.282;5.972;2023-03-23T01:23:48;40.9;36.9;43.2;;
78273;Laerm;67530;52.282;5.972;2023-03-23T01:24:08;41.7;38.9;43.6;;
78273;Laerm;67530;52.282;5.972;2023-03-23T01:24:28;40.9;37.1;43.3;;
78273;Laerm;67530;52.282;5.972;2023-03-23T01:24:48;40.4;36.8;46.1;;
78273;Laerm;67530;52.282;5.972;2023-03-23T01:25:09;40;36;43.2;;
78273;Laerm;67530;52.282;5.972;2023-03-23T01:25:28;40.1;36.1;42.9;;
78273;Laerm;67530;52.282;5.972;2023-03-23T01:25:48;40.8;36;48.4;;
78273;Laerm;67530;52.282;5.972;2023-03-23T01:26:09;40.7;36.8;43.2;;
78273;Laerm;67530;52.282;5.972;2023-03-23T01:26:28;41.7;37.1;50;;
78273;Laerm;67530;52.282;5.972;2023-03-23T01:26:48;40.9;36.4;43.2;;
78273;Laerm;67530;52.282;5.972;2023-03-23T01:27:08;39.8;36;43.1;;
78273;Laerm;67530;52.282;5.972;2023-03-23T01:27:29;40.7;36.1;48.8;;
78273;Laerm;67530;52.282;5.972;2023-03-23T01:27:49;40.3;36.4;44.7;;
78273;Laerm;67530;52.282;5.972;2023-03-23T01:28:09;42.5;36.6;49.9;;
78273;Laerm;67530;52.282;5.972;2023-03-23T01:28:29;40;36;42.5;;
78273;Laerm;67530;52.282;5.972;2023-03-23T01:28:49;39.9;34.8;42.7;;
78273;Laerm;67530;52.282;5.972;2023-03-23T01:29:09;39.8;36.2;43.1;;
78273;Laerm;67530;52.282;5.972;2023-03-23T01:29:29;41.1;36;47.1;;
78273;Laerm;67530;52.282;5.972;2023-03-23T01:29:49;39.6;35;42.2;;
78273;Laerm;67530;52.282;5.972;2023-03-23T01:30:11;40.8;36;49.8;;
78273;Laerm;67530;52.282;5.972;2023-03-23T01:30:29;40.1;35.7;42.9;;
78273;Laerm;67530;52.282;5.972;2023-03-23T01:30:49;39.8;35.7;42.1;;
78273;Laerm;67530;52.282;5.972;2023-03-23T01:31:10;40.1;35.6;42.3;;
78273;Laerm;67530;52.282;5.972;2023-03-23T01:31:29;39.9;35;42.3;;
78273;Laerm;67530;52.282;5.972;2023-03-23T01:31:49;40;35.9;42.1;;
78273;Laerm;67530;52.282;5.972;2023-03-23T01:32:09;40.1;36.4;42.2;;
78273;Laerm;67530;52.282;5.972;2023-03-23T01:32:29;39.8;35.5;41.9;;
78273;Laerm;67530;52.282;5.972;2023-03-23T01:32:50;39.6;35;43.7;;
78273;Laerm;67530;52.282;5.972;2023-03-23T01:33:10;40.4;37.4;42.1;;
78273;Laerm;67530;52.282;5.972;2023-03-23T01:33:30;39.2;35;42.2;;
78273;Laerm;67530;52.282;5.972;2023-03-23T01:33:50;40.1;37;42;;
78273;Laerm;67530;52.282;5.972;2023-03-23T01:34:10;39.3;35.3;41.7;;
78273;Laerm;67530;52.282;5.972;2023-03-23T01:34:30;39.3;35.4;46.7;;
78273;Laerm;67530;52.282;5.972;2023-03-23T01:34:50;42;34.8;50;;
78273;Laerm;67530;52.282;5.972;2023-03-23T01:35:11;39;34.2;45.4;;
78273;Laerm;67530;52.282;5.972;2023-03-23T01:35:30;39.6;35.7;41.8;;
78273;Laerm;67530;52.282;5.972;2023-03-23T01:35:50;40.1;37.1;41.8;;
78273;Laerm;67530;52.282;5.972;2023-03-23T01:36:11;40.3;36.9;42.2;;
78273;Laerm;67530;52.282;5.972;2023-03-23T01:36:30;39.2;35.5;42;;
78273;Laerm;67530;52.282;5.972;2023-03-23T01:36:50;39.5;35.8;47.2;;
78273;Laerm;67530;52.282;5.972;2023-03-23T01:37:10;38.3;34.5;41.3;;
78273;Laerm;67530;52.282;5.972;2023-03-23T01:37:30;38.6;34.9;42.1;;
78273;Laerm;67530;52.282;5.972;2023-03-23T01:37:51;39.8;34.4;46.3;;
78273;Laerm;67530;52.282;5.972;2023-03-23T01:38:11;38.9;34.9;44.6;;
78273;Laerm;67530;52.282;5.972;2023-03-23T01:38:31;39.5;35.6;41.8;;
78273;Laerm;67530;52.282;5.972;2023-03-23T01:38:51;39.2;35.7;41.9;;
78273;Laerm;67530;52.282;5.972;2023-03-23T01:39:11;39.4;35.7;41.6;;
78273;Laerm;67530;52.282;5.972;2023-03-23T01:39:31;39.3;35.1;45.6;;
78273;Laerm;67530;52.282;5.972;2023-03-23T01:39:51;39;35.4;41.6;;
78273;Laerm;67530;52.282;5.972;2023-03-23T01:40:11;41.4;35.2;51.3;;
78273;Laerm;67530;52.282;5.972;2023-03-23T01:40:31;38.4;34.6;40.7;;
78273;Laerm;67530;52.282;5.972;2023-03-23T01:40:51;39.6;35.2;41.9;;
78273;Laerm;67530;52.282;5.972;2023-03-23T01:41:12;39.6;35.4;41.6;;
78273;Laerm;67530;52.282;5.972;2023-03-23T01:41:31;40;37;41.8;;
78273;Laerm;67530;52.282;5.972;2023-03-23T01:41:51;39.2;36.2;41.8;;
78273;Laerm;67530;52.282;5.972;2023-03-23T01:42:11;39.5;34.4;41.7;;
78273;Laerm;67530;52.282;5.972;2023-03-23T01:42:32;38.7;34.7;41.6;;
78273;Laerm;67530;52.282;5.972;2023-03-23T01:42:51;39.5;36.1;41.8;;
78273;Laerm;67530;52.282;5.972;2023-03-23T01:43:12;39.7;35.3;41.8;;
78273;Laerm;67530;52.282;5.972;2023-03-23T01:43:31;38;34.8;41.8;;
78273;Laerm;67530;52.282;5.972;2023-03-23T01:43:53;38.4;35.2;41.1;;
78273;Laerm;67530;52.282;5.972;2023-03-23T01:45:11;38.4;35.6;41.7;;
78273;Laerm;67530;52.282;5.972;2023-03-23T01:45:19;40.4;37.4;41.9;;
78273;Laerm;67530;52.282;5.972;2023-03-23T01:45:32;40.7;35;46.5;;
78273;Laerm;67530;52.282;5.972;2023-03-23T01:45:37;40.1;37.3;41.8;;
78273;Laerm;67530;52.282;5.972;2023-03-23T01:45:52;38.9;35;41.8;;
78273;Laerm;67530;52.282;5.972;2023-03-23T01:46:12;38.4;35.7;41;;
78273;Laerm;67530;52.282;5.972;2023-03-23T01:46:32;39.5;36;41.6;;
78273;Laerm;67530;52.282;5.972;2023-03-23T01:46:52;39.5;33.9;46.8;;
78273;Laerm;67530;52.282;5.972;2023-03-23T01:47:12;39.7;34.8;45.9;;
78273;Laerm;67530;52.282;5.972;2023-03-23T01:47:32;39.7;35;41.7;;
78273;Laerm;67530;52.282;5.972;2023-03-23T01:47:54;39.3;36.2;41.8;;
78273;Laerm;67530;52.282;5.972;2023-03-23T01:48:14;39.4;35.7;42;;
78273;Laerm;67530;52.282;5.972;2023-03-23T01:48:33;38.8;35;44.1;;
78273;Laerm;67530;52.282;5.972;2023-03-23T01:48:52;39.2;35.9;41.9;;
78273;Laerm;67530;52.282;5.972;2023-03-23T01:49:13;43.9;37.8;47.9;;
78273;Laerm;67530;52.282;5.972;2023-03-23T01:49:33;39.1;35;46.2;;
78273;Laerm;67530;52.282;5.972;2023-03-23T01:49:53;40;36.5;42.2;;
78273;Laerm;67530;52.282;5.972;2023-03-23T01:50:13;39.8;36.2;41.7;;
78273;Laerm;67530;52.282;5.972;2023-03-23T01:50:34;39.2;34.8;41.9;;
78273;Laerm;67530;52.282;5.972;2023-03-23T01:50:54;39.8;36.6;42;;
78273;Laerm;67530;52.282;5.972;2023-03-23T01:51:13;39.7;36.2;42;;
78273;Laerm;67530;52.282;5.972;2023-03-23T01:51:33;38.9;34.4;41.6;;
78273;Laerm;67530;52.282;5.972;2023-03-23T01:51:54;38.8;33.7;41.4;;
78273;Laerm;67530;52.282;5.972;2023-03-23T01:52:13;39;35.8;41.3;;
78273;Laerm;67530;52.282;5.972;2023-03-23T01:52:33;41.8;36.5;47.5;;
78273;Laerm;67530;52.282;5.972;2023-03-23T01:52:53;41.2;37;49.7;;
78273;Laerm;67530;52.282;5.972;2023-03-23T01:53:13;39.2;36;45.4;;
78273;Laerm;67530;52.282;5.972;2023-03-23T01:53:34;40.2;37.2;42;;
78273;Laerm;67530;52.282;5.972;2023-03-23T01:53:54;40.1;36.6;41.8;;
78273;Laerm;67530;52.282;5.972;2023-03-23T01:54:14;39.9;34.8;45.8;;
78273;Laerm;67530;52.282;5.972;2023-03-23T01:54:33;39.2;35.9;41.5;;
78273;Laerm;67530;52.282;5.972;2023-03-23T01:54:54;41.5;36.6;46.2;;
78273;Laerm;67530;52.282;5.972;2023-03-23T01:55:14;39.2;36;41.9;;
78273;Laerm;67530;52.282;5.972;2023-03-23T01:55:34;38.4;34.1;41.3;;
78273;Laerm;67530;52.282;5.972;2023-03-23T01:55:54;40.3;37.2;42.1;;
78273;Laerm;67530;52.282;5.972;2023-03-23T01:56:14;39.4;35.9;41.8;;
78273;Laerm;67530;52.282;5.972;2023-03-23T01:56:35;40.1;36.6;42.1;;
78273;Laerm;67530;52.282;5.972;2023-03-23T01:56:55;39.3;35.7;41.6;;
78273;Laerm;67530;52.282;5.972;2023-03-23T01:57:15;39.7;36.2;41.8;;
78273;Laerm;67530;52.282;5.972;2023-03-23T01:57:34;43.1;37.6;49.7;;
78273;Laerm;67530;52.282;5.972;2023-03-23T01:57:54;39;35;44.2;;
78273;Laerm;67530;52.282;5.972;2023-03-23T01:58:14;38.3;35.1;42;;
78273;Laerm;67530;52.282;5.972;2023-03-23T01:58:34;40.1;36.2;42.9;;
78273;Laerm;67530;52.282;5.972;2023-03-23T01:58:54;40.2;36.7;42;;
78273;Laerm;67530;52.282;5.972;2023-03-23T01:59:14;39.2;35.5;41.8;;